Terminal Aerodrome Forecast
Issued by NWS Atlanta, GA

Home | Current Version | Previous Version | Text Only | Print | Product List | Glossary On
Versions: 1 2 3 4 5 6 7 8 9 10 11 12 13 14 15 16 17 18 19 20 21 22 23 24 25 26 27 28 29 30 31 32 33 34 35 36 37 38
000
FTAK31 PAJN 191100
TAFAHN
TAF
PAHN 191133Z 1912/2012 08015G25KT 6SM -RA BR SCT010 BKN020 OVC050
      TEMPO 1912/1916 3SM RA BR BKN010 OVC015
     FM191600 10015G25KT 5SM -RA BR BKN015 OVC040
     FM191900 10021G32KT 5SM -RA SCT015 OVC050
     FM200500 11015G25KT P6SM VCSH SCT015 OVC060
      AMD LTD TO CLD VIS AND WIND=

USA.gov is the U.S. government's official web portal to all federal, state and local government web resources and services.